Time;durP1;ratioP1;P1;durP2;ratioP2;P2;SDS_P1;SDS_P2;PMS_P1;PMS_P2;Temp;Humidity;BMP_temperature;BMP_pressure;BME280_temperature;BME280_humidity;BME280_pressure;Samples;Min_cycle;Max_cycle;Signal;HPM_P1;HPM_P2
2022/11/07 00:00:15;;;;;;;;;4.50;3.00;;;;;10.91;100.00;100379.47;6187705;22;45409;-90
2022/11/07 00:02:41;;;;;;;;;1.00;1.00;;;;;9.60;100.00;100159.72;6191861;22;47257;-89
2022/11/07 00:05:18;;;;;;;;;2.25;2.25;;;;;10.89;100.00;100382.16;6225584;22;45306;-89
2022/11/07 00:07:48;;;;;;;;;2.00;2.00;;;;;8.82;100.00;100035.72;6210231;22;44741;-89
2022/11/07 00:10:14;;;;;;;;;3.50;1.00;;;;;10.80;100.00;100372.66;6208307;22;44807;-90
2022/11/07 00:12:56;;;;;;;;;3.50;2.75;;;;;10.46;100.00;100301.22;6191500;22;45589;-90
2022/11/07 00:15:27;;;;;;;;;4.50;2.75;;;;;8.85;100.00;100040.94;6189151;22;45347;-90
2022/11/07 00:18:02;;;;;;;;;3.00;3.00;;;;;10.18;100.00;100280.72;6194807;22;45264;-90
2022/11/07 00:20:36;;;;;;;;;1.50;1.50;;;;;8.70;100.00;100023.69;6200070;22;45275;-90
2022/11/07 00:23:07;;;;;;;;;3.75;2.00;;;;;10.44;100.00;100338.25;6195508;22;47106;-91
2022/11/07 00:25:32;;;;;;;;;3.25;3.00;;;;;10.46;100.00;100325.91;6226845;22;45487;-91
2022/11/07 00:28:03;;;;;;;;;3.00;3.00;;;;;10.48;100.00;100317.94;6200549;22;45211;-91
2022/11/07 00:30:29;;;;;;;;;1.00;1.00;;;;;10.98;100.00;100407.50;6200723;22;44851;-90
2022/11/07 00:33:06;;;;;;;;;1.50;1.00;;;;;10.99;100.00;100393.38;6198716;22;47107;-91
2022/11/07 00:35:39;;;;;;;;;2.00;2.00;;;;;10.65;100.00;100338.69;6179237;22;45313;-90
2022/11/07 00:38:07;;;;;;;;;4.00;2.00;;;;;10.54;100.00;100327.50;6202165;22;45283;-92
2022/11/07 00:40:33;;;;;;;;;2.00;2.00;;;;;9.75;100.00;100190.16;6230790;22;45542;-90
2022/11/07 00:42:59;;;;;;;;;4.25;2.00;;;;;8.82;100.00;100029.56;6202216;22;47240;-91
2022/11/07 00:45:29;;;;;;;;;3.75;2.75;;;;;11.05;100.00;100421.44;6196394;22;44832;-89
2022/11/07 00:47:55;;;;;;;;;2.50;2.00;;;;;9.12;100.00;100082.53;6200016;22;44728;-92
2022/11/07 00:50:25;;;;;;;;;2.00;2.00;;;;;11.07;100.00;100412.56;6196876;22;45411;-91
2022/11/07 00:53:03;;;;;;;;;1.00;1.00;;;;;9.31;100.00;100110.25;6202688;22;47606;-90
2022/11/07 00:55:34;;;;;;;;;3.00;2.50;;;;;11.11;100.00;100398.34;6194524;22;45250;-91
2022/11/07 00:58:03;;;;;;;;;3.00;1.00;;;;;8.64;100.00;99986.94;6189818;22;45271;-91
2022/11/07 01:00:29;;;;;;;;;3.50;2.75;;;;;9.82;100.00;100175.03;6187455;22;45336;-91
2022/11/07 01:05:54;;;;;;;;;4.75;3.00;;;;;10.36;100.00;100268.91;6213164;22;45448;-90
2022/11/07 01:08:33;;;;;;;;;2.50;2.50;;;;;10.23;100.00;100248.91;6191620;22;45404;-91
2022/11/07 01:11:32;;;;;;;;;3.75;3.75;;;;;11.12;100.00;100389.50;6198699;22;45217;-90
2022/11/07 01:14:02;;;;;;;;;2.25;1.25;;;;;9.06;100.00;100046.63;6224059;22;48102;-91
2022/11/07 01:16:47;;;;;;;;;;;;;;;;;;;;;
2022/11/07 01:19:26;;;;;;;;;4.25;1.75;;;;;10.03;100.00;100215.91;6216060;22;69872;-89
2022/11/07 01:21:54;;;;;;;;;2.00;2.00;;;;;8.73;100.00;100006.94;6166629;22;45337;-91
2022/11/07 01:24:37;;;;;;;;;2.25;2.25;;;;;11.12;100.00;100415.09;6212505;22;47590;-91
2022/11/07 01:27:03;;;;;;;;;3.25;2.25;;;;;11.14;100.00;100429.16;6185180;22;45342;-91
2022/11/07 01:29:37;;;;;;;;;5.25;3.75;;;;;8.60;100.00;99973.84;6189141;22;45442;-91
2022/11/07 01:32:18;;;;;;;;;;;;;;;;;;;;;
2022/11/07 01:35:01;;;;;;;;;3.50;2.75;;;;;9.10;100.00;100065.91;6214047;22;75157;-91
2022/11/07 01:37:35;;;;;;;;;1.50;1.50;;;;;11.18;100.00;100405.22;6226426;22;45417;-90
2022/11/07 01:40:09;;;;;;;;;4.50;2.50;;;;;11.19;100.00;100412.28;6204837;22;44784;-91
2022/11/07 01:42:48;;;;;;;;;2.75;2.75;;;;;10.92;100.00;100371.50;6195032;22;45390;-91
2022/11/07 01:45:36;;;;;;;;;2.00;1.00;;;;;8.55;100.00;99968.69;6191396;22;45543;-91
2022/11/07 01:48:07;;;;;;;;;2.00;2.00;;;;;8.95;99.98;100036.31;6188916;22;45408;-91
2022/11/07 01:50:56;;;;;;;;;3.00;3.00;;;;;11.24;100.00;100416.59;6187113;22;45430;-91
2022/11/07 01:53:33;;;;;;;;;1.50;1.50;;;;;10.60;100.00;100311.50;6190995;22;45460;-91
2022/11/07 01:56:03;;;;;;;;;5.00;4.00;;;;;9.79;100.00;100180.41;6191351;22;47141;-90
2022/11/07 01:59:07;;;;;;;;;;;;;;;;;;;;;
2022/11/07 02:01:50;;;;;;;;;;;;;;;;;;;;;
2022/11/07 02:04:35;;;;;;;;;4.25;1.00;;;;;10.80;100.00;100334.78;6212678;22;69394;-92
2022/11/07 02:08:27;;;;;;;;;4.25;2.50;;;;;10.04;100.00;100204.47;6169136;22;46836;-92
2022/11/07 02:10:48;;;;;;;;;2.50;2.00;;;;;9.99;100.00;100193.16;6081782;23;45396;-91
2022/11/07 02:13:30;;;;;;;;;3.50;2.00;;;;;9.41;100.00;100095.06;6069810;23;45524;-90
2022/11/07 02:16:40;;;;;;;;;4.75;2.00;;;;;9.65;100.00;100151.69;6072581;23;45611;-91
2022/11/07 02:19:24;;;;;;;;;3.00;2.00;;;;;10.03;100.00;100213.28;6077986;23;45548;-91
2022/11/07 02:22:30;;;;;;;;;1.00;1.00;;;;;10.83;100.00;100335.56;6078719;23;45360;-91
2022/11/07 02:25:16;;;;;;;;;1.00;1.00;;;;;11.05;100.00;100382.63;6070821;23;44799;-93
2022/11/07 02:27:58;;;;;;;;;2.00;2.00;;;;;10.36;100.00;100271.53;6073628;23;45356;-90
2022/11/07 02:35:09;;;;;;;;;3.25;2.00;;;;;11.35;100.00;100411.88;6009018;23;45504;-91
2022/11/07 03:02:49;;;;;;;;;;;;;;;;;;;;;
2022/11/07 03:11:59;;;;;;;;;1.00;1.00;;;;;11.35;100.00;100399.50;5851659;24;45922;-91
2022/11/07 03:15:03;;;;;;;;;1.75;1.75;;;;;10.44;100.00;100259.00;5855394;24;45825;-91
2022/11/07 03:21:52;;;;;;;;;;;;;;;;;;;;;
2022/11/07 03:38:31;;;;;;;;;;;;;;;;;;;;;
2022/11/07 04:18:38;;;;;;;;;1.00;1.00;;;;;10.03;100.00;100164.91;6005077;23;45500;-92
2022/11/07 04:45:41;;;;;;;;;3.25;1.75;;;;;9.04;100.00;100017.66;5844432;24;45304;-90
2022/11/07 08:13:51;;;;;;;;;2.00;2.00;;;;;12.59;100.00;100516.22;6221479;22;1811703;-90
2022/11/07 08:16:17;;;;;;;;;3.50;2.25;;;;;12.34;100.00;100464.81;6312887;22;45316;-91
2022/11/07 08:18:48;;;;;;;;;2.50;2.50;;;;;12.67;100.00;100531.03;6275949;22;48127;-91
2022/11/07 08:21:14;;;;;;;;;1.50;1.50;;;;;11.75;100.00;100389.63;6283881;22;45991;-91
2022/11/07 08:28:24;;;;;;;;;;;;;;;;;;;;;
2022/11/07 08:31:10;;;;;;;;;2.00;0.50;;;;;12.88;100.00;100522.44;6164840;23;45373;-92
2022/11/07 08:33:37;;;;;;;;;1.00;1.00;;;;;12.46;100.00;100469.75;6132214;23;45467;-92
2022/11/07 08:36:21;;;;;;;;;4.00;2.00;;;;;13.02;99.95;100526.47;6129754;23;44742;-91
2022/11/07 08:38:46;;;;;;;;;3.00;2.00;;;;;12.04;99.74;100348.22;6129011;23;45478;-90
2022/11/07 08:41:31;;;;;;;;;2.00;2.00;;;;;13.20;99.37;100528.53;6126833;23;47109;-92
2022/11/07 08:44:11;;;;;;;;;4.75;3.75;;;;;13.37;99.34;100541.28;6129103;23;45419;-91
2022/11/07 08:46:36;;;;;;;;;2.50;2.00;;;;;11.35;98.35;100173.72;6128208;23;45264;-90
2022/11/07 08:52:41;;;;;;;;;2.00;2.00;;;;;13.79;98.50;100540.81;6132881;23;45143;-91
2022/11/07 08:55:41;;;;;;;;;1.75;1.00;;;;;11.78;97.78;100166.25;6129935;23;45392;-91
2022/11/07 08:58:52;;;;;;;;;3.00;2.00;;;;;12.77;97.35;100326.53;6121537;23;44792;-90
2022/11/07 09:01:17;;;;;;;;;2.00;2.00;;;;;13.06;97.46;100387.50;6220680;22;45227;-92
2022/11/07 09:03:43;;;;;;;;;2.25;1.75;;;;;12.92;97.63;100334.88;6312345;22;46895;-93
2022/11/07 09:06:38;;;;;;;;;2.00;2.00;;;;;11.60;96.96;100114.75;6304537;22;45467;-92
2022/11/07 09:09:16;;;;;;;;;2.00;2.00;;;;;12.90;97.27;100345.53;6275315;22;45316;-91
2022/11/07 09:11:41;;;;;;;;;2.25;2.25;;;;;12.82;97.11;100339.63;6301951;22;45621;-92
2022/11/07 09:17:50;;;;;;;;;1.00;1.00;;;;;13.36;97.80;100429.84;6189110;23;44766;-92
2022/11/07 09:20:20;;;;;;;;;3.00;2.50;;;;;13.57;97.69;100468.94;6168006;23;45477;-89
2022/11/07 09:22:45;;;;;;;;;1.50;1.00;;;;;13.61;98.23;100475.91;6171495;23;45588;-89
2022/11/07 09:25:11;;;;;;;;;4.75;2.25;;;;;12.91;98.11;100349.06;6164044;23;46705;-91
2022/11/07 09:27:37;;;;;;;;;2.75;2.75;;;;;12.81;97.65;100324.63;6160794;23;45354;-93
2022/11/07 09:30:05;;;;;;;;;1.00;1.00;;;;;13.76;96.96;100490.44;6158113;23;45256;-91
2022/11/07 09:33:05;;;;;;;;;1.25;1.25;;;;;14.26;96.86;100537.41;6157982;23;45498;-90
2022/11/07 09:35:30;;;;;;;;;1.50;1.50;;;;;14.33;97.22;100549.56;6157479;23;47001;-91
2022/11/07 09:37:56;;;;;;;;;2.00;2.00;;;;;13.51;97.26;100405.44;6158866;23;45321;-91
2022/11/07 09:40:42;;;;;;;;;3.00;1.50;;;;;14.44;97.14;100537.66;6162714;23;45323;-91
2022/11/07 09:43:29;;;;;;;;;2.00;2.00;;;;;14.50;96.57;100537.44;6161381;23;45445;-90
2022/11/07 09:46:03;;;;;;;;;2.00;2.00;;;;;14.56;96.63;100524.78;6159017;23;46963;-93
2022/11/07 09:48:37;;;;;;;;;4.00;2.50;;;;;13.59;96.39;100371.53;6162786;23;45212;-92
2022/11/07 09:51:03;;;;;;;;;3.50;2.50;;;;;13.86;96.25;100400.66;6162282;23;45358;-92
2022/11/07 09:53:32;;;;;;;;;2.25;2.25;;;;;14.84;95.45;100541.53;6186554;22;45375;-91
2022/11/07 09:56:02;;;;;;;;;1.25;0.75;;;;;13.26;95.16;100265.59;6277325;22;48552;-90
2022/11/07 09:58:53;;;;;;;;;2.00;1.00;;;;;14.23;94.45;100417.91;6306904;22;45362;-92
2022/11/07 10:01:20;;;;;;;;;3.75;1.50;;;;;14.96;95.80;100530.41;6307245;22;45333;-91
2022/11/07 10:03:46;;;;;;;;;1.75;1.75;;;;;14.27;94.93;100422.19;6276999;22;45597;-91
2022/11/07 10:06:27;;;;;;;;;2.25;1.00;;;;;14.47;94.54;100442.69;6301544;22;46959;-91
2022/11/07 10:09:28;;;;;;;;;1.75;1.75;;;;;15.12;94.27;100548.44;6278285;22;45252;-93
2022/11/07 10:12:18;;;;;;;;;3.00;1.50;;;;;15.13;94.33;100547.53;6185263;23;45356;-92
2022/11/07 10:15:02;;;;;;;;;4.50;2.00;;;;;14.94;94.16;100518.97;6159623;23;45200;-92
2022/11/07 10:18:00;;;;;;;;;1.25;1.25;;;;;15.24;94.42;100543.50;6166341;23;45869;-93
2022/11/07 10:21:05;;;;;;;;;1.50;1.50;;;;;14.63;93.44;100423.53;6165160;23;45248;-91
2022/11/07 10:23:54;;;;;;;;;3.75;3.50;;;;;14.69;93.13;100413.50;6162612;23;45389;-91
2022/11/07 10:26:22;;;;;;;;;1.75;1.75;;;;;15.47;92.94;100531.03;6161819;23;45407;-90
2022/11/07 10:29:00;;;;;;;;;3.75;2.50;;;;;15.13;93.57;100454.34;6160930;23;47794;-90
2022/11/07 10:31:39;;;;;;;;;2.00;2.00;;;;;15.70;93.32;100521.22;6164493;23;45266;-92
2022/11/07 10:34:14;;;;;;;;;1.00;1.00;;;;;15.19;92.64;100420.34;6176267;23;44759;-92
2022/11/07 10:36:40;;;;;;;;;2.00;2.00;;;;;15.33;92.12;100424.25;6153438;23;44867;-93
2022/11/07 10:39:16;;;;;;;;;2.50;1.50;;;;;15.60;91.75;100459.50;6176419;23;47001;-93
2022/11/07 10:42:07;;;;;;;;;2.25;2.25;;;;;16.04;91.00;100523.34;6170220;23;45225;-93
2022/11/07 10:44:34;;;;;;;;;4.75;2.25;;;;;15.60;91.73;100449.69;6173045;23;44735;-93
2022/11/07 10:47:01;;;;;;;;;3.50;3.25;;;;;15.85;92.59;100479.78;6280009;22;44873;-92
2022/11/07 10:49:31;;;;;;;;;5.00;3.75;;;;;15.21;91.91;100369.72;6306019;22;47074;-93
2022/11/07 10:52:15;;;;;;;;;2.25;2.00;;;;;15.23;92.34;100375.84;6284354;22;45266;-93
2022/11/07 10:54:43;;;;;;;;;2.00;2.00;;;;;16.09;92.02;100521.34;6280656;22;44665;-92
2022/11/07 10:57:09;;;;;;;;;2.25;1.25;;;;;15.61;92.24;100458.56;6308469;22;45183;-93
2022/11/07 10:59:38;;;;;;;;;2.00;2.00;;;;;15.15;91.87;100377.97;6296196;22;46902;-92
2022/11/07 11:02:28;;;;;;;;;1.00;1.00;;;;;16.01;92.76;100528.81;6297629;22;45216;-92
2022/11/07 11:04:56;;;;;;;;;3.75;3.00;;;;;15.28;92.53;100401.31;6290980;22;44732;-91
2022/11/07 11:07:33;;;;;;;;;2.00;2.00;;;;;15.89;92.39;100502.69;6285793;22;44840;-92
2022/11/07 11:09:59;;;;;;;;;2.50;2.00;;;;;15.45;92.05;100429.91;6279727;22;46194;-92
2022/11/07 11:12:27;;;;;;;;;2.00;1.00;;;;;15.33;91.97;100401.13;6279024;22;45305;-92
2022/11/07 11:15:14;;;;;;;;;1.75;1.75;;;;;15.69;91.62;100431.59;6288490;22;45253;-93
2022/11/07 11:17:40;;;;;;;;;3.75;1.75;;;;;15.50;90.41;100346.28;6291152;22;45229;-93
2022/11/07 11:20:22;;;;;;;;;1.25;1.25;;;;;16.84;89.08;100508.22;6277570;22;47201;-92
2022/11/07 11:22:48;;;;;;;;;2.00;2.00;;;;;16.73;88.32;100443.78;6303590;22;45209;-92
2022/11/07 11:25:18;;;;;;;;;0.50;0.50;;;;;17.35;88.59;100503.13;6281225;22;44938;-92
2022/11/07 11:27:45;;;;;;;;;5.75;4.00;;;;;16.58;87.53;100354.69;6279129;22;45203;-91
2022/11/07 11:30:16;;;;;;;;;1.00;1.00;;;;;16.92;88.03;100393.09;6284385;22;46569;-90
2022/11/07 11:32:50;;;;;;;;;3.25;1.25;;;;;17.62;88.11;100505.38;6306276;22;45729;-90
2022/11/07 11:35:40;;;;;;;;;3.75;2.50;;;;;17.72;88.39;100502.16;6305357;22;45144;-92
2022/11/07 11:38:27;;;;;;;;;0.75;0.75;;;;;16.74;87.58;100336.97;6278435;22;45330;-91
2022/11/07 11:40:58;;;;;;;;;1.50;1.50;;;;;17.20;86.96;100406.81;6277512;22;47081;-91
2022/11/07 11:43:33;;;;;;;;;1.25;1.25;;;;;16.64;87.70;100303.69;6279793;22;45393;-91
2022/11/07 11:46:06;;;;;;;;;0.75;0.50;;;;;17.55;87.68;100446.91;6278822;22;45246;-92
2022/11/07 11:49:02;;;;;;;;;1.75;1.75;;;;;17.54;87.48;100433.63;6280931;22;45565;-92
2022/11/07 11:51:42;;;;;;;;;3.00;1.50;;;;;18.40;84.79;100493.31;6255342;22;47042;-92
2022/11/07 11:54:14;;;;;;;;;2.00;2.00;;;;;17.32;83.46;100278.91;6279626;22;45836;-91
2022/11/07 11:56:49;;;;;;;;;2.00;2.00;;;;;18.69;83.75;100492.63;6257886;22;45381;-92
2022/11/07 11:59:39;;;;;;;;;2.75;1.75;;;;;18.70;83.78;100497.06;6282844;22;45266;-93
2022/11/07 12:02:39;;;;;;;;;3.25;2.50;;;;;18.59;83.21;100497.66;6278772;22;47623;-93
2022/11/07 12:05:26;;;;;;;;;2.00;2.00;;;;;17.57;84.40;100353.31;6278153;22;45320;-92
2022/11/07 12:08:10;;;;;;;;;1.25;1.25;;;;;18.37;85.42;100489.91;6277137;22;45410;-93
2022/11/07 12:10:43;;;;;;;;;3.00;2.00;;;;;17.61;85.67;100364.69;6277492;22;45440;-94
2022/11/07 12:13:28;;;;;;;;;2.50;2.00;;;;;18.57;84.03;100484.34;6284881;22;48417;-92
2022/11/07 12:16:23;;;;;;;;;3.50;2.25;;;;;18.59;84.80;100485.13;6286446;22;45239;-92
2022/11/07 12:19:14;;;;;;;;;4.00;2.50;;;;;18.36;84.14;100390.06;6282254;22;45230;-92
2022/11/07 12:21:45;;;;;;;;;1.50;1.50;;;;;19.24;81.11;100441.34;6302553;22;44835;-94
2022/11/07 12:24:35;;;;;;;;;3.00;2.25;;;;;19.66;80.68;100473.72;6280680;22;46902;-93
2022/11/07 12:27:15;;;;;;;;;1.00;1.00;;;;;19.37;81.96;100419.19;6290154;22;45230;-93
2022/11/07 12:30:05;;;;;;;;;1.25;1.00;;;;;19.58;81.33;100465.31;6304666;22;45359;-93
2022/11/07 12:32:51;;;;;;;;;2.25;2.25;;;;;19.33;81.00;100467.59;6283433;22;44724;-92
2022/11/07 12:35:41;;;;;;;;;3.25;2.25;;;;;19.18;79.99;100476.53;6295120;22;46314;-92
2022/11/07 12:38:29;;;;;;;;;3.25;2.50;;;;;19.10;82.04;100466.25;6293340;22;44699;-92
2022/11/07 12:44:37;;;;;;;;;2.50;2.50;;;;;18.94;83.30;100450.19;6280630;22;45353;-92
2022/11/07 12:50:39;;;;;;;;;2.50;1.25;;;;;18.81;82.67;100460.72;6285150;22;45400;-92
2022/11/07 12:53:28;;;;;;;;;3.25;2.00;;;;;18.33;82.44;100394.75;6282401;22;45132;-92
2022/11/07 12:56:12;;;;;;;;;2.00;2.00;;;;;18.35;82.63;100419.59;6288280;22;45538;-93
2022/11/07 12:58:42;;;;;;;;;2.50;1.50;;;;;18.52;81.72;100459.63;6285495;22;46669;-92
2022/11/07 13:01:12;;;;;;;;;2.75;1.50;;;;;17.77;83.96;100352.22;6296726;22;45371;-92
2022/11/07 13:03:53;;;;;;;;;1.75;1.75;;;;;17.36;83.63;100307.19;6286657;22;45186;-92
2022/11/07 13:06:24;;;;;;;;;2.00;2.00;;;;;16.47;84.35;100190.72;6280325;22;45463;-92
2022/11/07 13:09:11;;;;;;;;;3.50;3.50;;;;;18.03;84.84;100460.47;6281324;22;47101;-91
2022/11/07 13:11:47;;;;;;;;;3.75;1.50;;;;;16.26;84.25;100194.44;6278230;22;45312;-92
2022/11/07 13:14:29;;;;;;;;;2.75;2.00;;;;;17.73;85.79;100465.59;6279452;22;45234;-92
2022/11/07 13:17:00;;;;;;;;;1.00;1.00;;;;;17.13;85.43;100386.69;6283430;22;45436;-92
2022/11/07 13:19:35;;;;;;;;;2.50;1.25;;;;;17.47;85.50;100462.44;6278763;22;47439;-91
2022/11/07 13:22:18;;;;;;;;;2.00;2.00;;;;;16.46;86.63;100316.16;6300037;22;45202;-91
2022/11/07 13:24:54;;;;;;;;;1.25;1.25;;;;;16.17;86.23;100267.75;6281381;22;45199;-92
2022/11/07 13:27:22;;;;;;;;;0.75;0.75;;;;;16.81;86.39;100409.63;6277817;22;45517;-91
2022/11/07 13:29:47;;;;;;;;;1.75;1.75;;;;;17.07;86.30;100450.22;6277609;22;47137;-92
2022/11/07 13:32:14;;;;;;;;;2.50;0.75;;;;;16.22;84.92;100339.53;6304141;22;45173;-92
2022/11/07 13:34:58;;;;;;;;;0.50;0.50;;;;;16.86;86.05;100459.19;6279707;22;45309;-92
2022/11/07 13:37:35;;;;;;;;;0.75;0.75;;;;;15.55;85.64;100243.09;6282123;22;45213;-92
2022/11/07 13:40:24;;;;;;;;;2.00;2.00;;;;;16.67;84.08;100439.59;6287973;22;47077;-92
2022/11/07 13:42:58;;;;;;;;;1.50;1.50;;;;;14.75;83.59;100149.88;6284482;22;45230;-92
2022/11/07 13:45:31;;;;;;;;;1.50;1.50;;;;;16.43;84.22;100439.00;6286597;22;45350;-92
2022/11/07 13:47:59;;;;;;;;;0.25;0.00;;;;;14.26;84.10;100117.44;6279630;22;45344;-92
2022/11/07 13:50:40;;;;;;;;;0.75;0.75;;;;;15.37;85.82;100298.91;6303037;22;46976;-92
2022/11/07 13:53:20;;;;;;;;;1.25;0.25;;;;;16.14;86.05;100444.72;6278519;22;45375;-93
2022/11/07 13:56:02;;;;;;;;;1.75;1.00;;;;;16.09;86.34;100449.38;6285239;22;45312;-91
2022/11/07 13:58:30;;;;;;;;;0.50;0.50;;;;;15.93;86.37;100421.69;6315890;22;45346;-92
2022/11/07 14:01:09;;;;;;;;;1.75;0.75;;;;;15.38;84.35;100335.25;6284500;22;48404;-91
2022/11/07 14:03:36;;;;;;;;;0.00;0.00;;;;;15.47;85.83;100347.28;6279677;22;45774;-92
2022/11/07 14:06:02;;;;;;;;;1.25;1.00;;;;;15.94;86.01;100426.94;6281944;22;45316;-92
2022/11/07 14:08:49;;;;;;;;;4.50;2.00;;;;;15.47;86.40;100355.25;6259178;22;45435;-92
2022/11/07 14:11:22;;;;;;;;;1.25;0.25;;;;;14.90;86.53;100261.91;6160959;23;48452;-92
2022/11/07 14:13:51;;;;;;;;;1.25;0.75;;;;;15.16;86.84;100305.16;6168277;23;45278;-92
2022/11/07 14:16:25;;;;;;;;;1.50;1.50;;;;;15.85;86.80;100431.81;6133144;23;45285;-92
2022/11/07 14:18:57;;;;;;;;;1.00;1.00;;;;;15.70;87.17;100401.34;6139647;23;45323;-91
2022/11/07 14:21:28;;;;;;;;;1.00;1.00;;;;;15.38;86.83;100356.56;6142393;23;45320;-92
2022/11/07 14:23:54;;;;;;;;;0.00;0.00;;;;;15.23;87.31;100346.56;6135245;23;45493;-92
2022/11/07 14:26:31;;;;;;;;;3.25;2.00;;;;;15.39;87.30;100373.38;6140362;23;44775;-92
2022/11/07 14:28:59;;;;;;;;;3.75;2.75;;;;;14.81;87.06;100283.59;6138792;23;45284;-92
2022/11/07 14:31:34;;;;;;;;;2.50;2.50;;;;;15.62;87.89;100420.31;6134383;23;46962;-93
2022/11/07 14:34:21;;;;;;;;;3.50;1.75;;;;;15.35;87.35;100390.41;6136450;23;45254;-92
2022/11/07 14:36:59;;;;;;;;;3.50;1.50;;;;;15.55;88.33;100421.53;6141740;23;45233;-92
2022/11/07 14:39:28;;;;;;;;;3.00;1.75;;;;;14.58;88.54;100264.97;6143782;23;45198;-93
2022/11/07 14:41:55;;;;;;;;;4.00;2.75;;;;;14.83;88.22;100313.66;6159085;23;46284;-92
2022/11/07 14:44:30;;;;;;;;;3.50;2.25;;;;;14.83;88.59;100314.50;6132354;23;45281;-93
2022/11/07 14:46:57;;;;;;;;;2.75;1.75;;;;;14.96;88.19;100336.16;6132613;23;45201;-91
2022/11/07 14:49:27;;;;;;;;;2.50;2.50;;;;;15.42;87.33;100416.72;6272034;22;45199;-91
2022/11/07 14:51:55;;;;;;;;;3.75;2.50;;;;;13.80;87.90;100161.81;6284851;22;45076;-91
2022/11/07 14:54:25;;;;;;;;;1.50;1.50;;;;;14.44;87.94;100279.75;6311275;22;45225;-92
2022/11/07 14:56:54;;;;;;;;;2.00;2.00;;;;;14.00;87.90;100224.81;6278958;22;45381;-92
2022/11/07 14:59:23;;;;;;;;;2.25;2.00;;;;;13.99;87.96;100218.59;6284770;22;44932;-92
2022/11/07 15:01:54;;;;;;;;;2.50;2.50;;;;;14.36;88.06;100282.72;6282838;22;46343;-93
2022/11/07 15:04:44;;;;;;;;;6.25;4.00;;;;;13.02;87.48;100067.50;6291371;22;45257;-92
2022/11/07 15:07:23;;;;;;;;;2.75;2.75;;;;;14.83;88.80;100372.19;6271940;22;45314;-92
2022/11/07 15:09:49;;;;;;;;;2.50;2.50;;;;;14.81;88.29;100382.03;6283050;22;45336;-92
2022/11/07 15:12:19;;;;;;;;;5.50;3.00;;;;;14.16;89.77;100272.88;6279933;22;48263;-93
2022/11/07 15:14:47;;;;;;;;;2.00;2.00;;;;;14.01;88.50;100246.00;6304576;22;45239;-92
2022/11/07 15:17:22;;;;;;;;;6.00;6.00;;;;;14.86;88.98;100401.31;6277882;22;45363;-92
2022/11/07 15:20:01;;;;;;;;;3.25;3.00;;;;;13.79;88.82;100215.91;6282741;22;45492;-91
2022/11/07 15:22:37;;;;;;;;;2.75;2.75;;;;;14.99;89.65;100415.84;6280423;22;47739;-92
2022/11/07 15:25:46;;;;;;;;;5.00;4.00;;;;;13.73;89.82;100208.16;6281954;22;45214;-92
2022/11/07 15:28:40;;;;;;;;;3.25;3.25;;;;;14.99;90.37;100426.50;6288103;22;45327;-93
2022/11/07 15:31:20;;;;;;;;;5.00;3.50;;;;;14.02;90.09;100242.41;6284861;22;45228;-91
2022/11/07 15:33:46;;;;;;;;;3.00;3.00;;;;;13.00;89.77;100064.03;6290164;22;46224;-91
2022/11/07 15:36:13;;;;;;;;;3.00;2.25;;;;;14.53;89.01;100324.56;6291932;22;45212;-91
2022/11/07 15:38:39;;;;;;;;;1.75;1.75;;;;;14.08;90.07;100237.78;6321937;22;44593;-92
2022/11/07 15:41:04;;;;;;;;;3.00;3.00;;;;;13.10;89.69;100070.72;6297279;22;45127;-92
2022/11/07 15:43:30;;;;;;;;;6.75;4.25;;;;;13.54;89.79;100142.47;6295545;22;46348;-91
2022/11/07 15:45:56;;;;;;;;;3.25;3.25;;;;;14.43;89.99;100288.66;6319005;22;45323;-90
2022/11/07 15:48:27;;;;;;;;;6.75;4.00;;;;;12.74;90.08;100016.38;6291716;22;45258;-91
2022/11/07 15:50:53;;;;;;;;;2.50;2.00;;;;;14.17;89.15;100271.97;6293551;22;44741;-92
2022/11/07 15:53:23;;;;;;;;;4.00;3.00;;;;;15.01;89.32;100414.00;6292614;22;47659;-91
2022/11/07 15:55:53;;;;;;;;;4.00;4.00;;;;;14.11;89.46;100281.03;6291891;22;45175;-91
2022/11/07 15:58:24;;;;;;;;;3.00;3.00;;;;;14.25;88.44;100299.09;6275734;22;45232;-92
2022/11/07 16:00:53;;;;;;;;;3.25;3.00;;;;;14.14;88.89;100288.88;6271704;22;45234;-92
2022/11/07 16:03:21;;;;;;;;;3.25;3.25;;;;;13.48;89.11;100193.16;6298342;22;48097;-92
2022/11/07 16:05:48;;;;;;;;;2.50;2.50;;;;;12.12;87.17;99948.88;6306761;22;45327;-94
2022/11/07 16:08:17;;;;;;;;;4.25;4.25;;;;;13.40;88.34;100184.63;6278149;22;45257;-92
2022/11/07 16:10:46;;;;;;;;;5.00;3.00;;;;;13.26;88.83;100182.47;6309745;22;45151;-92
2022/11/07 16:13:11;;;;;;;;;3.25;3.25;;;;;13.20;88.06;100161.47;6281724;22;47290;-92
2022/11/07 16:15:40;;;;;;;;;2.00;2.00;;;;;13.90;89.29;100293.38;6310540;22;45269;-93
2022/11/07 16:18:14;;;;;;;;;3.50;3.00;;;;;14.55;88.64;100405.19;6286165;22;45232;-92
2022/11/07 16:20:39;;;;;;;;;5.00;3.50;;;;;13.70;88.40;100253.44;6284969;22;45272;-92
2022/11/07 16:23:06;;;;;;;;;2.25;2.25;;;;;14.14;88.69;100331.41;6309267;22;47737;-92
2022/11/07 16:25:32;;;;;;;;;5.00;3.00;;;;;14.14;88.73;100335.88;6282213;22;45205;-92
2022/11/07 16:27:59;;;;;;;;;2.00;2.00;;;;;14.18;88.49;100342.78;6277749;22;45241;-92
2022/11/07 16:30:26;;;;;;;;;2.00;2.00;;;;;13.39;89.12;100214.75;6303577;22;45202;-93
2022/11/07 16:32:51;;;;;;;;;3.00;3.00;;;;;14.13;89.36;100344.75;6257500;22;47436;-92
2022/11/07 16:35:17;;;;;;;;;4.25;3.00;;;;;14.11;88.40;100330.69;6278460;22;45242;-93
2022/11/07 16:37:42;;;;;;;;;4.25;3.00;;;;;14.62;89.20;100412.03;6302652;22;45329;-92
2022/11/07 16:40:14;;;;;;;;;1.75;1.75;;;;;13.48;88.83;100217.03;6281095;22;45566;-93
2022/11/07 16:42:40;;;;;;;;;5.25;4.00;;;;;14.09;88.96;100321.88;6319982;22;47245;-92
2022/11/07 16:45:07;;;;;;;;;2.75;2.75;;;;;13.86;88.70;100291.75;6312978;22;45250;-93
2022/11/07 16:47:36;;;;;;;;;3.00;3.00;;;;;13.23;89.13;100183.44;6304815;22;45194;-92
2022/11/07 16:50:03;;;;;;;;;3.75;3.50;;;;;14.46;88.61;100397.56;6283371;22;45176;-92
2022/11/07 16:52:28;;;;;;;;;2.00;2.00;;;;;14.03;89.00;100333.63;6283129;22;46095;-92
2022/11/07 16:54:54;;;;;;;;;5.75;5.00;;;;;13.74;89.26;100285.13;6312378;22;45214;-93
2022/11/07 16:57:23;;;;;;;;;2.00;2.00;;;;;13.98;89.58;100336.47;6309838;22;45237;-93
2022/11/07 16:59:51;;;;;;;;;2.25;2.25;;;;;12.89;89.12;100146.66;6281581;22;45348;-92
2022/11/07 17:02:19;;;;;;;;;1.50;1.50;;;;;14.03;89.49;100331.81;6284816;22;47283;-92
2022/11/07 17:04:45;;;;;;;;;3.00;3.00;;;;;12.84;88.62;100135.34;6294399;22;45170;-92
2022/11/07 17:07:13;;;;;;;;;4.75;2.75;;;;;12.62;88.96;100099.03;6285582;22;45371;-93
2022/11/07 17:09:38;;;;;;;;;3.50;3.00;;;;;14.30;88.43;100390.19;6278809;22;45480;-92
2022/11/07 17:12:11;;;;;;;;;3.50;3.50;;;;;13.76;89.25;100293.88;6280900;22;45460;-93
2022/11/07 17:14:36;;;;;;;;;4.00;3.00;;;;;13.44;88.94;100253.47;6265210;22;44692;-91
2022/11/07 17:17:04;;;;;;;;;3.75;3.50;;;;;13.77;89.23;100298.28;6288037;22;45242;-92
2022/11/07 17:19:29;;;;;;;;;2.75;2.75;;;;;13.96;89.26;100329.47;6258452;22;45336;-92
2022/11/07 17:22:00;;;;;;;;;4.25;4.25;;;;;13.30;88.72;100213.25;6252304;22;46421;-92
2022/11/07 17:24:25;;;;;;;;;4.00;3.75;;;;;14.03;89.09;100339.81;6282211;22;45436;-93
2022/11/07 17:26:51;;;;;;;;;3.75;3.00;;;;;14.54;88.83;100427.38;6252831;22;44719;-93
2022/11/07 17:29:16;;;;;;;;;3.75;3.75;;;;;13.70;88.70;100295.91;6282064;22;45354;-92
2022/11/07 17:31:43;;;;;;;;;2.00;2.00;;;;;14.11;88.16;100366.09;6282888;22;45285;-91
2022/11/07 17:34:09;;;;;;;;;3.00;3.00;;;;;12.87;87.70;100156.47;6252085;22;45321;-92
2022/11/07 17:36:39;;;;;;;;;4.50;3.75;;;;;13.27;88.28;100231.94;6253406;22;45313;-92
2022/11/07 17:39:09;;;;;;;;;3.25;3.00;;;;;13.67;88.92;100316.34;6280800;22;45116;-91
2022/11/07 17:41:37;;;;;;;;;2.75;2.75;;;;;12.68;88.94;100143.88;6286046;22;45128;-93
2022/11/07 17:44:03;;;;;;;;;6.75;5.00;;;;;12.06;88.33;100034.72;6260642;22;45138;-93
2022/11/07 17:46:32;;;;;;;;;5.00;3.75;;;;;11.92;89.06;100023.69;6256865;22;45169;-91
2022/11/07 17:49:01;;;;;;;;;6.00;5.00;;;;;13.61;89.00;100305.09;6254458;22;45316;-92
2022/11/07 17:51:27;;;;;;;;;6.50;4.75;;;;;13.15;89.23;100228.81;6256954;22;46425;-91
2022/11/07 17:53:57;;;;;;;;;7.50;6.75;;;;;12.79;88.24;100188.56;6253075;22;45172;-94